createdAt,value
2022-11-02T00:01:48.962Z,20.00
2022-11-02T00:04:24.541Z,19.80
2022-11-02T00:07:00.651Z,19.60
2022-11-02T00:09:36.748Z,19.70
2022-11-02T00:12:14.258Z,19.60
2022-11-02T00:14:50.077Z,19.80
2022-11-02T00:17:46.537Z,20.00
2022-11-02T00:20:24.514Z,20.10
2022-11-02T00:23:08.902Z,20.20
2022-11-02T00:28:26.301Z,20.10
2022-11-02T00:36:15.980Z,20.50
2022-11-02T00:38:51.802Z,20.50
2022-11-02T00:41:27.192Z,20.60
2022-11-02T00:44:05.068Z,20.50
2022-11-02T00:46:41.381Z,20.50
2022-11-02T00:49:17.280Z,20.60
2022-11-02T00:51:53.068Z,20.90
2022-11-02T00:57:08.221Z,21.00
2022-11-02T00:59:49.792Z,21.00
2022-11-02T01:02:25.599Z,21.10
2022-11-02T01:28:29.529Z,21.60
2022-11-02T01:55:04.270Z,21.70
2022-11-02T01:57:44.762Z,21.60
2022-11-02T02:00:23.124Z,21.70
2022-11-02T02:32:36.408Z,22.10
2022-11-02T02:56:25.512Z,22.40
2022-11-02T02:59:06.149Z,22.30
2022-11-02T03:04:22.554Z,22.20
2022-11-02T03:09:41.446Z,22.00
2022-11-02T03:12:27.639Z,22.20
2022-11-02T03:20:38.742Z,22.30
2022-11-02T03:39:22.842Z,22.30
2022-11-02T03:42:00.196Z,22.30
2022-11-02T03:44:41.344Z,22.40
2022-11-02T03:47:20.050Z,22.40
2022-11-02T03:50:00.843Z,22.40
2022-11-02T03:52:41.573Z,22.50
2022-11-02T03:55:22.968Z,22.50
2022-11-02T04:00:40.023Z,22.50
2022-11-02T04:03:18.403Z,22.50
2022-11-02T04:05:56.619Z,22.50
2022-11-02T05:00:31.440Z,22.20
2022-11-02T05:03:11.315Z,22.10
2022-11-02T05:05:51.128Z,22.10
2022-11-02T05:08:29.968Z,22.10
2022-11-02T05:11:07.946Z,22.10
2022-11-02T05:13:46.324Z,22.00
2022-11-02T05:16:26.348Z,22.00
2022-11-02T05:19:06.853Z,21.80
2022-11-02T05:21:47.201Z,21.90
2022-11-02T05:24:42.927Z,21.80
2022-11-02T05:27:22.564Z,21.60
2022-11-02T05:29:58.617Z,21.40
2022-11-02T05:32:36.416Z,21.30
2022-11-02T05:35:12.825Z,21.20
2022-11-02T05:37:48.769Z,21.20
2022-11-02T05:40:25.852Z,21.20
2022-11-02T05:43:07.927Z,21.30
2022-11-02T05:45:48.318Z,21.30
2022-11-02T05:48:24.045Z,21.30
2022-11-02T05:51:02.843Z,21.10
2022-11-02T05:53:40.066Z,21.00
2022-11-02T05:56:22.158Z,21.00
2022-11-02T05:59:03.132Z,20.90
2022-11-02T06:01:39.412Z,20.80
2022-11-02T06:04:15.969Z,20.80
2022-11-02T06:06:51.989Z,20.90
2022-11-02T06:09:27.796Z,20.90
2022-11-02T06:12:07.032Z,20.90
2022-11-02T06:14:45.188Z,20.90
2022-11-02T06:17:21.227Z,20.90
2022-11-02T06:19:58.489Z,20.90
2022-11-02T06:22:33.829Z,20.80
2022-11-02T06:25:10.174Z,20.80
2022-11-02T06:27:55.080Z,20.80
2022-11-02T06:30:37.661Z,20.60
2022-11-02T06:33:13.907Z,20.60
2022-11-02T06:35:51.997Z,20.40
2022-11-02T06:38:28.386Z,20.40
2022-11-02T06:41:05.885Z,20.50
2022-11-02T06:43:43.443Z,20.40
2022-11-02T06:46:21.193Z,20.30
2022-11-02T06:48:57.187Z,20.30
2022-11-02T06:51:33.951Z,20.20
2022-11-02T06:54:09.785Z,20.10
2022-11-02T06:56:45.609Z,20.10
2022-11-02T06:59:21.879Z,20.10
2022-11-02T07:01:59.843Z,20.20
2022-11-02T07:04:37.507Z,20.00
2022-11-02T07:07:13.144Z,19.90
2022-11-02T07:09:49.942Z,19.70
2022-11-02T07:12:25.261Z,19.50
2022-11-02T07:15:01.635Z,19.50
2022-11-02T07:17:44.632Z,19.30
2022-11-02T07:20:21.467Z,19.40
2022-11-02T07:23:02.185Z,19.40
2022-11-02T07:25:39.792Z,19.40
2022-11-02T07:28:18.228Z,19.30
2022-11-02T07:30:54.787Z,19.20
2022-11-02T07:33:32.661Z,19.20
2022-11-02T07:36:10.385Z,19.20
2022-11-02T07:38:47.174Z,19.20
2022-11-02T07:41:23.067Z,19.20
2022-11-02T07:44:01.814Z,19.30
2022-11-02T07:46:55.890Z,19.20
2022-11-02T07:49:32.972Z,19.30
2022-11-02T07:52:08.890Z,19.20
2022-11-02T07:54:45.077Z,19.10
2022-11-02T07:57:24.281Z,18.90
2022-11-02T08:00:00.907Z,18.80
2022-11-02T08:02:46.670Z,18.70
2022-11-02T08:05:24.644Z,18.70
2022-11-02T08:08:07.365Z,18.70
2022-11-02T08:10:43.963Z,18.80
2022-11-02T08:13:22.113Z,18.80
2022-11-02T08:15:58.363Z,18.50
2022-11-02T08:18:35.240Z,18.70
2022-11-02T08:21:12.969Z,18.70
2022-11-02T08:23:48.537Z,18.60
2022-11-02T08:26:24.133Z,18.50
2022-11-02T08:29:00.131Z,18.50
2022-11-02T08:31:35.744Z,18.40
2022-11-02T08:34:14.517Z,18.50
2022-11-02T08:36:52.644Z,18.60
2022-11-02T08:39:28.780Z,18.60
2022-11-02T08:42:04.917Z,18.60
2022-11-02T08:44:42.765Z,18.40
2022-11-02T08:47:20.475Z,18.30
2022-11-02T08:49:57.258Z,18.30
2022-11-02T08:52:40.683Z,18.20
2022-11-02T08:55:18.259Z,18.20
2022-11-02T08:57:57.621Z,18.30
2022-11-02T09:00:36.198Z,18.40
2022-11-02T09:03:12.943Z,18.30
2022-11-02T09:05:50.392Z,18.30
2022-11-02T09:08:29.289Z,18.30
2022-11-02T09:11:07.954Z,18.30
2022-11-02T09:13:45.119Z,18.30
2022-11-02T09:16:21.368Z,18.20
2022-11-02T09:18:57.152Z,18.10
2022-11-02T09:21:35.524Z,18.20
2022-11-02T09:24:13.654Z,18.00
2022-11-02T09:26:51.153Z,17.80
2022-11-02T09:29:27.473Z,17.90
2022-11-02T09:32:04.333Z,17.90
2022-11-02T09:34:39.946Z,17.90
2022-11-02T09:37:15.749Z,17.90
2022-11-02T09:39:53.296Z,17.90
2022-11-02T09:42:36.114Z,17.90
2022-11-02T09:45:17.651Z,17.90
2022-11-02T09:48:16.408Z,17.90
2022-11-02T09:51:01.947Z,17.80
2022-11-02T09:53:57.508Z,17.50
2022-11-02T09:56:37.084Z,17.50
2022-11-02T09:59:19.679Z,17.50
2022-11-02T10:02:04.011Z,17.60
2022-11-02T10:04:59.680Z,17.70
2022-11-02T10:07:54.884Z,17.70
2022-11-02T10:10:37.064Z,17.80
2022-11-02T10:13:26.188Z,17.80
2022-11-02T10:16:05.609Z,17.80
2022-11-02T10:18:43.648Z,17.70
2022-11-02T10:21:24.018Z,17.70
2022-11-02T10:24:01.013Z,17.60
2022-11-02T10:26:44.969Z,17.40
2022-11-02T10:29:28.996Z,17.50
2022-11-02T10:32:06.489Z,17.40
2022-11-02T10:34:43.732Z,17.50
2022-11-02T10:37:41.509Z,17.50
2022-11-02T10:40:35.952Z,17.50
2022-11-02T10:43:24.109Z,17.40
2022-11-02T10:46:35.591Z,17.40
2022-11-02T10:49:21.328Z,17.50
2022-11-02T10:51:58.293Z,17.40
2022-11-02T10:54:34.710Z,17.40
2022-11-02T10:57:17.099Z,17.50
2022-11-02T11:00:28.333Z,17.50
2022-11-02T11:03:15.404Z,17.50
2022-11-02T11:06:03.175Z,17.40
2022-11-02T11:08:43.342Z,17.40
2022-11-02T11:11:24.489Z,17.40
2022-11-02T11:20:04.437Z,17.20
2022-11-02T11:22:44.453Z,17.10
2022-11-02T11:25:28.599Z,17.20
2022-11-02T11:28:05.340Z,17.10
2022-11-02T11:33:46.707Z,17.20
2022-11-02T11:36:33.667Z,17.20
2022-11-02T11:39:25.368Z,17.30
2022-11-02T11:42:06.666Z,17.30
2022-11-02T11:44:42.413Z,17.20
2022-11-02T11:47:22.009Z,17.20
2022-11-02T11:50:18.574Z,17.20
2022-11-02T11:53:15.220Z,17.20
2022-11-02T11:55:54.081Z,17.20
2022-11-02T11:58:31.201Z,17.20
2022-11-02T12:01:22.056Z,17.20
2022-11-02T12:03:59.302Z,17.20
2022-11-02T12:06:43.907Z,17.20
2022-11-02T12:09:28.745Z,17.20
2022-11-02T12:12:13.965Z,17.20
2022-11-02T12:15:01.404Z,17.10
2022-11-02T12:17:58.959Z,17.20
2022-11-02T12:20:59.849Z,17.10
2022-11-02T12:23:54.064Z,17.10
2022-11-02T12:26:44.122Z,17.10
2022-11-02T12:29:42.689Z,17.10
2022-11-02T12:32:33.449Z,17.10
2022-11-02T12:35:29.379Z,17.10
2022-11-02T12:38:23.477Z,17.10
2022-11-02T12:41:07.771Z,17.10
2022-11-02T12:43:52.000Z,17.10
2022-11-02T12:46:40.453Z,17.10
2022-11-02T12:49:35.585Z,17.00
2022-11-02T12:52:24.427Z,17.00
2022-11-02T12:55:03.671Z,16.80
2022-11-02T12:57:43.559Z,16.80
2022-11-02T13:00:26.321Z,16.80
2022-11-02T13:03:08.103Z,16.80
2022-11-02T13:05:47.662Z,16.80
2022-11-02T13:08:27.628Z,16.70
2022-11-02T13:11:09.035Z,16.70
2022-11-02T13:13:50.177Z,16.50
2022-11-02T13:16:37.717Z,16.50
2022-11-02T13:19:20.728Z,16.50
2022-11-02T13:22:00.348Z,16.50
2022-11-02T13:24:43.834Z,16.50
2022-11-02T13:27:36.854Z,16.60
2022-11-02T13:30:21.387Z,16.40
2022-11-02T13:33:06.293Z,16.50
2022-11-02T13:35:43.640Z,16.60
2022-11-02T13:38:36.915Z,16.70
2022-11-02T13:41:42.410Z,16.60
2022-11-02T13:44:55.529Z,16.70
2022-11-02T13:48:00.793Z,16.60
2022-11-02T13:50:48.560Z,16.60
2022-11-02T13:53:27.666Z,16.50
2022-11-02T13:56:14.269Z,16.50
2022-11-02T13:58:57.237Z,16.50
2022-11-02T14:01:38.145Z,16.40
2022-11-02T14:07:16.407Z,16.50
2022-11-02T14:09:56.583Z,16.40
2022-11-02T14:12:49.337Z,16.30
2022-11-02T14:15:56.651Z,16.40
2022-11-02T14:18:36.801Z,16.50
2022-11-02T14:21:50.844Z,16.40
2022-11-02T14:25:19.084Z,16.30
2022-11-02T14:28:07.245Z,16.40
2022-11-02T14:30:56.704Z,16.40
2022-11-02T14:33:51.940Z,16.40
2022-11-02T14:36:54.063Z,16.30
2022-11-02T14:39:41.245Z,16.20
2022-11-02T14:42:35.590Z,16.20
2022-11-02T14:45:46.130Z,16.20
2022-11-02T14:48:25.558Z,16.20
2022-11-02T14:51:11.361Z,16.30
2022-11-02T14:53:47.436Z,16.30
2022-11-02T14:56:25.626Z,16.30
2022-11-02T14:59:04.529Z,16.30
2022-11-02T15:02:01.929Z,16.30
2022-11-02T15:04:49.196Z,16.30
2022-11-02T15:07:27.798Z,16.30
2022-11-02T15:10:05.230Z,16.30
2022-11-02T15:12:57.875Z,16.20
2022-11-02T15:15:43.659Z,16.20
2022-11-02T15:18:45.355Z,16.10
2022-11-02T15:21:33.674Z,16.10
2022-11-02T15:24:27.592Z,16.00
2022-11-02T15:27:12.926Z,16.00
2022-11-02T15:29:54.757Z,16.00
2022-11-02T15:32:43.480Z,16.00
2022-11-02T15:35:28.224Z,16.00
2022-11-02T15:38:17.639Z,16.00
2022-11-02T15:44:03.626Z,16.00
2022-11-02T15:46:57.100Z,16.10
2022-11-02T15:50:01.027Z,16.00
2022-11-02T15:53:21.051Z,16.00
2022-11-02T15:55:56.781Z,16.00
2022-11-02T15:58:51.154Z,16.00
2022-11-02T16:01:28.685Z,16.00
2022-11-02T16:04:06.881Z,16.00
2022-11-02T16:06:45.394Z,15.90
2022-11-02T16:09:41.091Z,16.00
2022-11-02T16:12:20.632Z,15.80
2022-11-02T16:15:01.540Z,15.80
2022-11-02T16:17:37.183Z,15.80
2022-11-02T16:20:21.787Z,15.80
2022-11-02T16:23:00.864Z,15.90
2022-11-02T16:25:43.869Z,15.90
2022-11-02T16:28:25.879Z,15.90
2022-11-02T16:31:17.274Z,15.90
2022-11-02T16:33:58.010Z,15.90
2022-11-02T16:36:36.259Z,15.90
2022-11-02T16:39:21.071Z,15.80
2022-11-02T16:42:00.006Z,15.70
2022-11-02T16:44:36.687Z,15.60
2022-11-02T16:47:26.050Z,15.60
2022-11-02T16:50:06.180Z,15.70
2022-11-02T16:52:43.511Z,15.70
2022-11-02T16:55:49.865Z,15.70
2022-11-02T16:58:28.481Z,15.70
2022-11-02T17:01:07.049Z,15.60
2022-11-02T17:03:43.172Z,15.60
2022-11-02T17:06:19.710Z,15.70
2022-11-02T17:08:59.035Z,15.60
2022-11-02T17:11:35.751Z,15.60
2022-11-02T17:14:16.203Z,15.50
2022-11-02T17:17:07.683Z,15.50
2022-11-02T17:19:58.486Z,15.50
2022-11-02T17:22:39.679Z,15.50
2022-11-02T17:25:18.116Z,15.60
2022-11-02T17:27:53.999Z,15.60
2022-11-02T17:30:52.971Z,15.70
2022-11-02T17:33:31.255Z,15.70
2022-11-02T17:36:12.571Z,15.70
2022-11-02T17:38:49.906Z,15.70
2022-11-02T17:41:46.279Z,15.70
2022-11-02T17:44:24.429Z,15.60
2022-11-02T17:47:01.554Z,15.60
2022-11-02T17:49:37.410Z,15.60
2022-11-02T17:56:47.616Z,15.60
2022-11-02T17:59:23.473Z,15.60
2022-11-02T18:02:01.996Z,15.60
2022-11-02T18:04:38.169Z,15.60
2022-11-02T18:07:16.347Z,15.60
2022-11-02T18:09:52.286Z,15.60
2022-11-02T18:12:28.788Z,15.50
2022-11-02T18:15:04.525Z,15.50
2022-11-02T18:17:41.766Z,15.50
2022-11-02T18:20:19.749Z,15.60
2022-11-02T18:22:56.177Z,15.50
2022-11-02T18:25:34.824Z,15.50
2022-11-02T18:28:10.701Z,15.50
2022-11-02T18:30:50.099Z,15.50
2022-11-02T18:33:28.772Z,15.50
2022-11-02T18:36:09.200Z,15.50
2022-11-02T18:38:44.887Z,15.60
2022-11-02T18:41:36.504Z,15.50
2022-11-02T18:44:15.465Z,15.50
2022-11-02T18:46:51.867Z,15.50
2022-11-02T18:49:31.439Z,15.40
2022-11-02T18:52:07.361Z,15.50
2022-11-02T18:54:43.389Z,15.50
2022-11-02T18:57:27.838Z,15.50
2022-11-02T19:00:05.053Z,15.60
2022-11-02T19:02:42.377Z,15.60
2022-11-02T19:05:35.484Z,15.60
2022-11-02T19:08:38.476Z,15.60
2022-11-02T19:11:14.861Z,15.60
2022-11-02T19:13:51.484Z,15.60
2022-11-02T19:16:27.585Z,15.60
2022-11-02T19:19:03.450Z,15.60
2022-11-02T19:21:41.196Z,15.70
2022-11-02T19:24:17.152Z,15.80
2022-11-02T19:26:53.293Z,15.90
2022-11-02T19:29:28.985Z,16.00
2022-11-02T19:32:04.370Z,16.20
2022-11-02T19:34:40.518Z,16.30
2022-11-02T19:37:19.846Z,16.40
2022-11-02T19:39:56.906Z,16.40
2022-11-02T19:42:32.819Z,16.60
2022-11-02T19:45:09.561Z,16.70
2022-11-02T19:47:45.239Z,16.70
2022-11-02T19:50:22.531Z,16.80
2022-11-02T19:53:00.610Z,16.80
2022-11-02T19:55:36.222Z,16.80
2022-11-02T19:58:11.750Z,16.90
2022-11-02T20:00:49.332Z,16.90
2022-11-02T20:03:25.201Z,17.00
2022-11-02T20:06:06.013Z,17.10
2022-11-02T20:08:43.991Z,17.10
2022-11-02T20:11:20.725Z,17.20
2022-11-02T20:13:57.285Z,17.10
2022-11-02T20:16:33.689Z,17.20
2022-11-02T20:19:10.759Z,17.30
2022-11-02T20:21:46.563Z,17.30
2022-11-02T20:24:24.115Z,17.40
2022-11-02T20:27:04.397Z,17.40
2022-11-02T20:29:40.543Z,17.50
2022-11-02T20:32:16.081Z,17.60
2022-11-02T20:34:51.898Z,17.40
2022-11-02T20:37:27.798Z,17.50
2022-11-02T20:40:05.339Z,17.60
2022-11-02T20:42:42.407Z,17.70
2022-11-02T20:45:18.163Z,17.80
2022-11-02T20:47:53.635Z,17.90
2022-11-02T20:50:30.581Z,17.70
2022-11-02T20:53:06.571Z,17.70
2022-11-02T20:55:48.134Z,17.80
2022-11-02T20:58:23.980Z,18.00
2022-11-02T21:01:00.988Z,17.70
2022-11-02T21:06:14.326Z,17.70
2022-11-02T21:08:52.148Z,17.80
2022-11-02T21:11:45.292Z,17.70
2022-11-02T21:14:21.097Z,18.00
2022-11-02T21:16:57.806Z,18.00
2022-11-02T21:19:33.601Z,18.10
2022-11-02T21:22:08.890Z,18.20
2022-11-02T21:29:58.993Z,18.40
2022-11-02T21:32:34.090Z,18.70
2022-11-02T21:35:09.534Z,18.80
2022-11-02T21:37:45.796Z,19.00
2022-11-02T21:40:22.027Z,19.10
2022-11-02T21:42:59.886Z,19.30
2022-11-02T21:45:38.115Z,19.30
2022-11-02T21:48:14.111Z,19.40
2022-11-02T21:50:49.749Z,19.40
2022-11-02T21:53:25.901Z,19.40
2022-11-02T21:56:06.657Z,19.60
2022-11-02T21:58:51.806Z,19.70
2022-11-02T22:01:48.138Z,19.70
2022-11-02T22:04:26.916Z,19.80
2022-11-02T22:07:03.534Z,19.70
2022-11-02T22:09:39.292Z,19.60
2022-11-02T22:12:35.460Z,19.60
2022-11-02T22:15:14.091Z,19.80
2022-11-02T22:17:50.278Z,19.90
2022-11-02T22:20:26.506Z,20.00
2022-11-02T22:31:02.873Z,20.10
2022-11-02T22:41:32.085Z,20.40
2022-11-02T22:44:10.757Z,20.40
2022-11-02T22:46:49.828Z,20.60
2022-11-02T22:49:26.013Z,20.60
2022-11-02T22:52:03.428Z,20.60
2022-11-02T22:54:40.612Z,20.60
2022-11-02T22:59:52.223Z,20.90
2022-11-02T23:02:30.652Z,20.90
2022-11-02T23:05:06.149Z,20.90
2022-11-02T23:07:43.099Z,21.00
2022-11-02T23:10:30.897Z,21.10
2022-11-02T23:13:07.094Z,21.20
2022-11-02T23:15:43.096Z,21.30
2022-11-02T23:18:42.095Z,21.30
